sensor_id;sensor_type;location;lat;lon;timestamp;pressure;altitude;pressure_sealevel;temperature;humidity
68634;BME280;55625;47.072;22.192;2023-02-13T00:02:16;101848.16;;;-2.78;100.00
68634;BME280;55625;47.072;22.192;2023-02-13T00:04:42;101831.72;;;-2.74;100.00
68634;BME280;55625;47.072;22.192;2023-02-13T00:07:09;101832.00;;;-2.76;100.00
68634;BME280;55625;47.072;22.192;2023-02-13T00:09:37;101830.56;;;-2.73;100.00
68634;BME280;55625;47.072;22.192;2023-02-13T00:12:04;101838.09;;;-2.74;99.63
68634;BME280;55625;47.072;22.192;2023-02-13T00:14:33;101840.56;;;-2.72;99.46
68634;BME280;55625;47.072;22.192;2023-02-13T00:16:59;101832.31;;;-2.77;99.37
68634;BME280;55625;47.072;22.192;2023-02-13T00:19:25;101831.50;;;-2.78;99.61
68634;BME280;55625;47.072;22.192;2023-02-13T00:21:50;101837.03;;;-2.78;98.84
68634;BME280;55625;47.072;22.192;2023-02-13T00:24:16;101842.91;;;-2.79;99.00
68634;BME280;55625;47.072;22.192;2023-02-13T00:26:42;101845.19;;;-2.82;98.34
68634;BME280;55625;47.072;22.192;2023-02-13T00:29:08;101851.06;;;-2.83;98.02
68634;BME280;55625;47.072;22.192;2023-02-13T00:31:34;101854.66;;;-2.83;98.34
68634;BME280;55625;47.072;22.192;2023-02-13T00:34:00;101857.44;;;-2.83;97.77
68634;BME280;55625;47.072;22.192;2023-02-13T00:36:26;101850.22;;;-2.84;98.03
68634;BME280;55625;47.072;22.192;2023-02-13T00:38:53;101860.81;;;-2.86;97.04
68634;BME280;55625;47.072;22.192;2023-02-13T00:41:19;101857.53;;;-2.88;97.39
68634;BME280;55625;47.072;22.192;2023-02-13T00:43:47;101860.44;;;-2.93;97.09
68634;BME280;55625;47.072;22.192;2023-02-13T00:46:14;101851.09;;;-2.97;96.79
68634;BME280;55625;47.072;22.192;2023-02-13T00:48:40;101850.38;;;-3.02;96.38
68634;BME280;55625;47.072;22.192;2023-02-13T00:51:07;101832.97;;;-3.08;96.67
68634;BME280;55625;47.072;22.192;2023-02-13T00:53:34;101843.34;;;-3.14;97.41
68634;BME280;55625;47.072;22.192;2023-02-13T00:56:01;101843.28;;;-3.22;97.96
68634;BME280;55625;47.072;22.192;2023-02-13T00:58:27;101839.97;;;-3.24;97.89
68634;BME280;55625;47.072;22.192;2023-02-13T01:01:46;101844.31;;;-3.32;98.32
68634;BME280;55625;47.072;22.192;2023-02-13T01:04:12;101842.66;;;-3.33;98.39
68634;BME280;55625;47.072;22.192;2023-02-13T01:06:38;101838.25;;;-3.34;97.58
68634;BME280;55625;47.072;22.192;2023-02-13T01:09:04;101843.03;;;-3.39;97.19
68634;BME280;55625;47.072;22.192;2023-02-13T01:11:31;101834.19;;;-3.41;97.79
68634;BME280;55625;47.072;22.192;2023-02-13T01:13:57;101835.94;;;-3.46;97.95
68634;BME280;55625;47.072;22.192;2023-02-13T01:16:22;101832.97;;;-3.49;97.95
68634;BME280;55625;47.072;22.192;2023-02-13T01:18:48;101831.63;;;-3.52;98.04
68634;BME280;55625;47.072;22.192;2023-02-13T01:21:18;101824.44;;;-3.53;98.05
68634;BME280;55625;47.072;22.192;2023-02-13T01:23:45;101833.91;;;-3.54;97.58
68634;BME280;55625;47.072;22.192;2023-02-13T01:26:23;101820.94;;;-3.58;97.73
68634;BME280;55625;47.072;22.192;2023-02-13T01:28:53;101821.78;;;-3.58;98.40
68634;BME280;55625;47.072;22.192;2023-02-13T01:31:20;101827.84;;;-3.56;98.55
68634;BME280;55625;47.072;22.192;2023-02-13T01:33:45;101836.66;;;-3.54;98.14
68634;BME280;55625;47.072;22.192;2023-02-13T01:36:12;101844.69;;;-3.52;97.55
68634;BME280;55625;47.072;22.192;2023-02-13T01:38:39;101834.72;;;-3.53;97.45
68634;BME280;55625;47.072;22.192;2023-02-13T01:41:06;101831.13;;;-3.54;97.98
68634;BME280;55625;47.072;22.192;2023-02-13T01:46:40;101832.75;;;-3.53;98.35
68634;BME280;55625;47.072;22.192;2023-02-13T01:49:23;101838.94;;;-3.56;98.54
68634;BME280;55625;47.072;22.192;2023-02-13T01:51:53;101828.66;;;-3.55;98.90
68634;BME280;55625;47.072;22.192;2023-02-13T01:54:26;101828.84;;;-3.52;98.50
68634;BME280;55625;47.072;22.192;2023-02-13T01:57:01;101832.66;;;-3.48;99.38
68634;BME280;55625;47.072;22.192;2023-02-13T01:59:33;101843.66;;;-3.42;98.46
68634;BME280;55625;47.072;22.192;2023-02-13T02:02:02;101836.97;;;-3.41;97.75
68634;BME280;55625;47.072;22.192;2023-02-13T02:04:34;101843.66;;;-3.42;97.78
68634;BME280;55625;47.072;22.192;2023-02-13T02:07:13;101841.19;;;-3.44;97.37
68634;BME280;55625;47.072;22.192;2023-02-13T02:09:43;101842.53;;;-3.41;96.20
68634;BME280;55625;47.072;22.192;2023-02-13T02:15:16;101840.88;;;-3.42;96.12
68634;BME280;55625;47.072;22.192;2023-02-13T02:17:42;101843.44;;;-3.46;96.38
68634;BME280;55625;47.072;22.192;2023-02-13T02:33:00;101859.28;;;-3.60;96.15
68634;BME280;55625;47.072;22.192;2023-02-13T02:38:27;101871.81;;;-3.63;95.57
68634;BME280;55625;47.072;22.192;2023-02-13T02:41:12;101868.94;;;-3.58;94.69
68634;BME280;55625;47.072;22.192;2023-02-13T02:44:54;101855.22;;;-3.68;95.03
68634;BME280;55625;47.072;22.192;2023-02-13T02:50:58;101871.97;;;-3.73;95.19
68634;BME280;55625;47.072;22.192;2023-02-13T02:56:41;101866.94;;;-3.71;95.01
68634;BME280;55625;47.072;22.192;2023-02-13T02:59:15;101876.91;;;-3.70;94.64
68634;BME280;55625;47.072;22.192;2023-02-13T03:02:03;101866.44;;;-3.73;94.58
68634;BME280;55625;47.072;22.192;2023-02-13T03:04:53;101872.59;;;-3.76;94.75
68634;BME280;55625;47.072;22.192;2023-02-13T03:07:38;101883.69;;;-3.76;95.02
68634;BME280;55625;47.072;22.192;2023-02-13T03:10:27;101875.56;;;-3.72;94.73
68634;BME280;55625;47.072;22.192;2023-02-13T03:13:37;101875.25;;;-3.71;94.92
68634;BME280;55625;47.072;22.192;2023-02-13T03:16:05;101888.09;;;-3.75;95.15
68634;BME280;55625;47.072;22.192;2023-02-13T03:18:53;101890.66;;;-3.79;95.83
68634;BME280;55625;47.072;22.192;2023-02-13T03:22:07;101882.66;;;-3.80;96.29
68634;BME280;55625;47.072;22.192;2023-02-13T03:27:57;101900.94;;;-3.79;97.59
68634;BME280;55625;47.072;22.192;2023-02-13T03:34:12;101890.44;;;-3.82;96.79
68634;BME280;55625;47.072;22.192;2023-02-13T03:36:46;101884.06;;;-3.83;97.06
68634;BME280;55625;47.072;22.192;2023-02-13T03:40:01;101884.59;;;-3.81;97.62
68634;BME280;55625;47.072;22.192;2023-02-13T03:45:39;101883.88;;;-3.72;97.34
68634;BME280;55625;47.072;22.192;2023-02-13T03:48:38;101883.69;;;-3.76;97.51
68634;BME280;55625;47.072;22.192;2023-02-13T03:51:31;101886.16;;;-3.75;96.42
68634;BME280;55625;47.072;22.192;2023-02-13T03:54:05;101883.06;;;-3.73;97.08
68634;BME280;55625;47.072;22.192;2023-02-13T03:56:33;101882.75;;;-3.71;96.21
68634;BME280;55625;47.072;22.192;2023-02-13T03:59:29;101891.09;;;-3.71;96.73
68634;BME280;55625;47.072;22.192;2023-02-13T04:02:17;101885.22;;;-3.70;96.17
68634;BME280;55625;47.072;22.192;2023-02-13T04:05:08;101873.31;;;-3.70;96.06
68634;BME280;55625;47.072;22.192;2023-02-13T04:07:35;101873.63;;;-3.72;96.71
68634;BME280;55625;47.072;22.192;2023-02-13T04:10:05;101873.63;;;-3.72;96.49
68634;BME280;55625;47.072;22.192;2023-02-13T04:13:35;101878.66;;;-3.74;95.88
68634;BME280;55625;47.072;22.192;2023-02-13T04:16:10;101885.31;;;-3.75;95.88
68634;BME280;55625;47.072;22.192;2023-02-13T04:18:39;101881.00;;;-3.81;95.92
68634;BME280;55625;47.072;22.192;2023-02-13T04:21:06;101879.34;;;-3.82;95.77
68634;BME280;55625;47.072;22.192;2023-02-13T04:23:33;101879.97;;;-3.85;95.38
68634;BME280;55625;47.072;22.192;2023-02-13T04:26:02;101885.09;;;-3.92;95.48
68634;BME280;55625;47.072;22.192;2023-02-13T04:28:30;101881.84;;;-3.99;95.23
68634;BME280;55625;47.072;22.192;2023-02-13T04:30:56;101885.09;;;-4.11;95.95
68634;BME280;55625;47.072;22.192;2023-02-13T04:33:22;101889.53;;;-4.10;95.98
68634;BME280;55625;47.072;22.192;2023-02-13T04:35:48;101895.16;;;-4.15;96.03
68634;BME280;55625;47.072;22.192;2023-02-13T04:38:14;101887.13;;;-4.17;96.21
68634;BME280;55625;47.072;22.192;2023-02-13T04:40:40;101891.13;;;-4.23;96.50
68634;BME280;55625;47.072;22.192;2023-02-13T04:43:06;101896.66;;;-4.23;97.04
68634;BME280;55625;47.072;22.192;2023-02-13T04:45:32;101904.44;;;-4.25;96.35
68634;BME280;55625;47.072;22.192;2023-02-13T04:47:58;101906.09;;;-4.24;96.71
68634;BME280;55625;47.072;22.192;2023-02-13T04:50:24;101905.28;;;-4.24;96.36
68634;BME280;55625;47.072;22.192;2023-02-13T04:52:56;101901.38;;;-4.23;96.38
68634;BME280;55625;47.072;22.192;2023-02-13T04:55:23;101898.91;;;-4.25;96.43
68634;BME280;55625;47.072;22.192;2023-02-13T04:57:54;101897.25;;;-4.26;96.52
68634;BME280;55625;47.072;22.192;2023-02-13T05:00:22;101907.81;;;-4.28;96.64
68634;BME280;55625;47.072;22.192;2023-02-13T05:02:49;101905.06;;;-4.28;96.63
68634;BME280;55625;47.072;22.192;2023-02-13T05:05:15;101905.41;;;-4.34;96.99
68634;BME280;55625;47.072;22.192;2023-02-13T05:07:41;101905.09;;;-4.33;97.05
68634;BME280;55625;47.072;22.192;2023-02-13T05:10:09;101895.16;;;-4.34;97.24
68634;BME280;55625;47.072;22.192;2023-02-13T05:12:36;101899.56;;;-4.33;97.74
68634;BME280;55625;47.072;22.192;2023-02-13T05:15:02;101906.69;;;-4.27;97.53
68634;BME280;55625;47.072;22.192;2023-02-13T05:17:28;101903.84;;;-4.22;96.91
68634;BME280;55625;47.072;22.192;2023-02-13T05:19:54;101906.53;;;-4.17;96.56
68634;BME280;55625;47.072;22.192;2023-02-13T05:22:20;101904.28;;;-4.15;97.38
68634;BME280;55625;47.072;22.192;2023-02-13T05:25:04;101917.84;;;-4.13;97.28
68634;BME280;55625;47.072;22.192;2023-02-13T05:27:30;101917.84;;;-4.13;96.76
68634;BME280;55625;47.072;22.192;2023-02-13T05:29:56;101913.66;;;-4.11;96.60
68634;BME280;55625;47.072;22.192;2023-02-13T05:32:22;101908.94;;;-4.10;96.59
68634;BME280;55625;47.072;22.192;2023-02-13T05:34:48;101909.59;;;-4.18;96.14
68634;BME280;55625;47.072;22.192;2023-02-13T05:37:14;101918.00;;;-4.23;96.61
68634;BME280;55625;47.072;22.192;2023-02-13T05:39:39;101912.75;;;-4.25;96.16
68634;BME280;55625;47.072;22.192;2023-02-13T05:42:05;101918.63;;;-4.26;96.58
68634;BME280;55625;47.072;22.192;2023-02-13T05:44:31;101926.84;;;-4.21;95.85
68634;BME280;55625;47.072;22.192;2023-02-13T05:46:58;101924.38;;;-4.23;96.19
68634;BME280;55625;47.072;22.192;2023-02-13T05:49:24;101933.50;;;-4.22;96.12
68634;BME280;55625;47.072;22.192;2023-02-13T05:51:50;101931.66;;;-4.27;96.39
68634;BME280;55625;47.072;22.192;2023-02-13T05:54:17;101926.75;;;-4.35;96.80
68634;BME280;55625;47.072;22.192;2023-02-13T05:56:43;101930.66;;;-4.36;97.81
68634;BME280;55625;47.072;22.192;2023-02-13T05:59:09;101932.00;;;-4.33;97.26
68634;BME280;55625;47.072;22.192;2023-02-13T06:01:35;101926.66;;;-4.30;97.63
68634;BME280;55625;47.072;22.192;2023-02-13T06:04:01;101925.53;;;-4.29;96.71
68634;BME280;55625;47.072;22.192;2023-02-13T06:06:26;101914.47;;;-4.29;96.81
68634;BME280;55625;47.072;22.192;2023-02-13T06:08:52;101911.13;;;-4.26;96.69
68634;BME280;55625;47.072;22.192;2023-02-13T06:11:19;101926.03;;;-4.22;96.96
68634;BME280;55625;47.072;22.192;2023-02-13T06:13:45;101919.56;;;-4.17;97.07
68634;BME280;55625;47.072;22.192;2023-02-13T06:16:11;101922.34;;;-4.17;97.55
68634;BME280;55625;47.072;22.192;2023-02-13T06:18:37;101929.75;;;-4.13;97.34
68634;BME280;55625;47.072;22.192;2023-02-13T06:21:04;101934.00;;;-4.01;97.36
68634;BME280;55625;47.072;22.192;2023-02-13T06:23:30;101936.94;;;-3.93;96.47
68634;BME280;55625;47.072;22.192;2023-02-13T06:26:04;101932.34;;;-3.84;95.47
68634;BME280;55625;47.072;22.192;2023-02-13T06:28:31;101934.22;;;-3.79;95.52
68634;BME280;55625;47.072;22.192;2023-02-13T06:30:57;101932.19;;;-3.73;95.52
68634;BME280;55625;47.072;22.192;2023-02-13T06:33:23;101931.72;;;-3.62;95.94
68634;BME280;55625;47.072;22.192;2023-02-13T06:35:49;101939.66;;;-3.41;94.96
68634;BME280;55625;47.072;22.192;2023-02-13T06:38:15;101930.47;;;-3.23;94.26
68634;BME280;55625;47.072;22.192;2023-02-13T06:40:46;101923.06;;;-3.14;93.97
68634;BME280;55625;47.072;22.192;2023-02-13T06:43:13;101924.72;;;-2.99;93.37
68634;BME280;55625;47.072;22.192;2023-02-13T06:45:40;101924.09;;;-2.83;92.30
68634;BME280;55625;47.072;22.192;2023-02-13T06:48:05;101918.75;;;-2.65;92.00
68634;BME280;55625;47.072;22.192;2023-02-13T06:50:31;101916.75;;;-2.51;90.36
68634;BME280;55625;47.072;22.192;2023-02-13T06:52:59;101912.34;;;-2.38;91.94
68634;BME280;55625;47.072;22.192;2023-02-13T06:55:25;101918.44;;;-2.14;90.79
68634;BME280;55625;47.072;22.192;2023-02-13T06:57:51;101922.06;;;-1.91;89.24
68634;BME280;55625;47.072;22.192;2023-02-13T07:00:18;101916.63;;;-1.74;89.05
68634;BME280;55625;47.072;22.192;2023-02-13T07:02:46;101927.50;;;-1.64;88.01
68634;BME280;55625;47.072;22.192;2023-02-13T07:05:13;101925.34;;;-1.67;87.39
68634;BME280;55625;47.072;22.192;2023-02-13T07:07:40;101923.22;;;-1.70;88.20
68634;BME280;55625;47.072;22.192;2023-02-13T07:10:10;101921.56;;;-1.71;88.19
68634;BME280;55625;47.072;22.192;2023-02-13T07:12:37;101927.81;;;-1.65;88.44
68634;BME280;55625;47.072;22.192;2023-02-13T07:15:04;101924.84;;;-1.69;88.80
68634;BME280;55625;47.072;22.192;2023-02-13T07:17:30;101927.44;;;-1.72;88.82
68634;BME280;55625;47.072;22.192;2023-02-13T07:19:56;101921.06;;;-1.73;88.79
68634;BME280;55625;47.072;22.192;2023-02-13T07:22:22;101918.97;;;-1.67;89.36
68634;BME280;55625;47.072;22.192;2023-02-13T07:24:48;101927.63;;;-1.46;89.46
68634;BME280;55625;47.072;22.192;2023-02-13T07:27:14;101930.81;;;-1.31;88.59
68634;BME280;55625;47.072;22.192;2023-02-13T07:29:40;101929.34;;;-1.28;87.84
68634;BME280;55625;47.072;22.192;2023-02-13T07:32:05;101930.34;;;-1.24;88.28
68634;BME280;55625;47.072;22.192;2023-02-13T07:34:32;101930.09;;;-1.14;88.31
68634;BME280;55625;47.072;22.192;2023-02-13T07:36:58;101927.81;;;-1.12;88.06
68634;BME280;55625;47.072;22.192;2023-02-13T07:39:24;101927.69;;;-1.07;88.91
68634;BME280;55625;47.072;22.192;2023-02-13T07:41:50;101924.41;;;-1.00;87.58
68634;BME280;55625;47.072;22.192;2023-02-13T07:44:16;101931.69;;;-0.90;87.98
68634;BME280;55625;47.072;22.192;2023-02-13T07:46:42;101932.25;;;-0.71;87.57
68634;BME280;55625;47.072;22.192;2023-02-13T07:49:08;101930.00;;;-0.52;85.99
68634;BME280;55625;47.072;22.192;2023-02-13T07:51:34;101925.59;;;-0.44;85.19
68634;BME280;55625;47.072;22.192;2023-02-13T07:54:01;101928.25;;;-0.22;85.45
68634;BME280;55625;47.072;22.192;2023-02-13T07:56:27;101925.31;;;0.09;84.34
68634;BME280;55625;47.072;22.192;2023-02-13T07:58:53;101937.63;;;0.43;83.19
68634;BME280;55625;47.072;22.192;2023-02-13T08:01:19;101936.72;;;0.77;81.82
68634;BME280;55625;47.072;22.192;2023-02-13T08:03:48;101934.16;;;1.10;81.43
68634;BME280;55625;47.072;22.192;2023-02-13T08:06:18;101941.81;;;1.30;78.81
68634;BME280;55625;47.072;22.192;2023-02-13T08:08:44;101929.22;;;1.45;77.76
68634;BME280;55625;47.072;22.192;2023-02-13T08:11:31;101941.00;;;1.59;77.98
68634;BME280;55625;47.072;22.192;2023-02-13T08:14:16;101935.25;;;1.85;76.68
68634;BME280;55625;47.072;22.192;2023-02-13T08:16:42;101934.97;;;1.99;75.15
68634;BME280;55625;47.072;22.192;2023-02-13T08:19:07;101934.19;;;2.10;75.24
68634;BME280;55625;47.072;22.192;2023-02-13T08:21:33;101932.56;;;2.09;74.21
68634;BME280;55625;47.072;22.192;2023-02-13T08:24:00;101928.41;;;2.15;74.75
68634;BME280;55625;47.072;22.192;2023-02-13T08:26:25;101921.47;;;2.34;73.49
68634;BME280;55625;47.072;22.192;2023-02-13T08:28:51;101926.75;;;2.35;74.79
68634;BME280;55625;47.072;22.192;2023-02-13T08:31:17;101932.41;;;2.47;73.74
68634;BME280;55625;47.072;22.192;2023-02-13T08:33:43;101932.88;;;2.49;74.22
68634;BME280;55625;47.072;22.192;2023-02-13T08:36:09;101939.00;;;2.64;74.13
68634;BME280;55625;47.072;22.192;2023-02-13T08:38:35;101933.97;;;2.69;73.64
68634;BME280;55625;47.072;22.192;2023-02-13T08:41:00;101932.59;;;2.75;73.73
68634;BME280;55625;47.072;22.192;2023-02-13T08:43:26;101931.59;;;2.80;73.28
68634;BME280;55625;47.072;22.192;2023-02-13T08:45:52;101930.56;;;2.97;73.74
68634;BME280;55625;47.072;22.192;2023-02-13T08:48:18;101937.78;;;2.86;73.40
68634;BME280;55625;47.072;22.192;2023-02-13T08:50:44;101939.19;;;2.92;73.04
68634;BME280;55625;47.072;22.192;2023-02-13T08:53:09;101940.13;;;2.96;72.87
68634;BME280;55625;47.072;22.192;2023-02-13T08:55:35;101942.72;;;3.01;73.35
68634;BME280;55625;47.072;22.192;2023-02-13T08:58:03;101943.88;;;2.88;72.79
68634;BME280;55625;47.072;22.192;2023-02-13T09:00:29;101937.22;;;2.92;73.50
68634;BME280;55625;47.072;22.192;2023-02-13T09:03:00;101943.50;;;2.89;73.48
68634;BME280;55625;47.072;22.192;2023-02-13T09:05:27;101941.31;;;2.95;73.95
68634;BME280;55625;47.072;22.192;2023-02-13T09:07:53;101937.69;;;2.94;73.62
68634;BME280;55625;47.072;22.192;2023-02-13T09:10:19;101941.13;;;3.12;74.08
68634;BME280;55625;47.072;22.192;2023-02-13T09:12:52;101940.44;;;3.39;73.16
68634;BME280;55625;47.072;22.192;2023-02-13T09:15:17;101923.34;;;3.45;73.43
68634;BME280;55625;47.072;22.192;2023-02-13T09:17:43;101940.31;;;3.48;72.62
68634;BME280;55625;47.072;22.192;2023-02-13T09:20:10;101939.84;;;3.46;73.03
68634;BME280;55625;47.072;22.192;2023-02-13T09:22:41;101943.44;;;3.34;72.12
68634;BME280;55625;47.072;22.192;2023-02-13T09:25:08;101941.00;;;3.33;73.55
68634;BME280;55625;47.072;22.192;2023-02-13T09:27:34;101939.72;;;3.30;74.08
68634;BME280;55625;47.072;22.192;2023-02-13T09:30:01;101931.28;;;3.30;74.51
68634;BME280;55625;47.072;22.192;2023-02-13T09:32:27;101933.63;;;3.28;73.91
68634;BME280;55625;47.072;22.192;2023-02-13T09:34:53;101931.88;;;3.24;73.88
68634;BME280;55625;47.072;22.192;2023-02-13T09:37:19;101925.34;;;3.20;74.27
68634;BME280;55625;47.072;22.192;2023-02-13T09:39:45;101927.78;;;3.21;74.28
68634;BME280;55625;47.072;22.192;2023-02-13T09:42:22;101915.88;;;3.24;74.85
68634;BME280;55625;47.072;22.192;2023-02-13T09:44:58;101919.59;;;3.28;74.53
68634;BME280;55625;47.072;22.192;2023-02-13T09:47:37;101927.56;;;3.26;74.52
68634;BME280;55625;47.072;22.192;2023-02-13T09:50:12;101927.66;;;3.30;74.23
68634;BME280;55625;47.072;22.192;2023-02-13T09:52:40;101917.25;;;3.30;74.05
68634;BME280;55625;47.072;22.192;2023-02-13T09:55:17;101920.78;;;3.39;74.30
68634;BME280;55625;47.072;22.192;2023-02-13T10:00:42;101926.50;;;3.55;72.92
68634;BME280;55625;47.072;22.192;2023-02-13T10:22:47;101900.41;;;3.79;72.71
68634;BME280;55625;47.072;22.192;2023-02-13T10:25:23;101898.97;;;3.85;73.25
68634;BME280;55625;47.072;22.192;2023-02-13T10:28:13;101891.69;;;3.96;74.57
68634;BME280;55625;47.072;22.192;2023-02-13T10:30:51;101889.72;;;3.85;73.45
68634;BME280;55625;47.072;22.192;2023-02-13T10:33:25;101891.50;;;3.77;73.94
68634;BME280;55625;47.072;22.192;2023-02-13T10:36:15;101885.53;;;3.66;73.44
68634;BME280;55625;47.072;22.192;2023-02-13T10:38:53;101880.31;;;3.53;74.22
68634;BME280;55625;47.072;22.192;2023-02-13T10:44:32;101883.34;;;3.72;73.60
68634;BME280;55625;47.072;22.192;2023-02-13T10:50:21;101889.56;;;3.93;73.76
68634;BME280;55625;47.072;22.192;2023-02-13T10:53:27;101879.09;;;3.78;72.62
68634;BME280;55625;47.072;22.192;2023-02-13T10:59:42;101874.91;;;3.72;73.89
68634;BME280;55625;47.072;22.192;2023-02-13T11:02:29;101874.56;;;3.73;73.63
68634;BME280;55625;47.072;22.192;2023-02-13T11:05:17;101867.63;;;3.83;73.71
68634;BME280;55625;47.072;22.192;2023-02-13T11:07:46;101876.03;;;3.83;73.19
68634;BME280;55625;47.072;22.192;2023-02-13T11:10:24;101888.50;;;3.98;72.95
68634;BME280;55625;47.072;22.192;2023-02-13T11:12:51;101870.16;;;4.00;73.41
68634;BME280;55625;47.072;22.192;2023-02-13T11:15:31;101859.94;;;4.08;72.31
68634;BME280;55625;47.072;22.192;2023-02-13T11:18:03;101863.00;;;4.03;72.91
68634;BME280;55625;47.072;22.192;2023-02-13T11:20:41;101865.94;;;3.94;73.11
68634;BME280;55625;47.072;22.192;2023-02-13T11:26:06;101855.16;;;3.96;72.58
68634;BME280;55625;47.072;22.192;2023-02-13T11:29:29;101846.38;;;3.98;73.06
68634;BME280;55625;47.072;22.192;2023-02-13T11:31:36;101845.09;;;3.95;73.52
68634;BME280;55625;47.072;22.192;2023-02-13T11:37:08;101832.25;;;4.97;70.01
68634;BME280;55625;47.072;22.192;2023-02-13T11:39:41;101825.78;;;5.48;68.99
68634;BME280;55625;47.072;22.192;2023-02-13T11:42:20;101830.78;;;5.89;66.71
68634;BME280;55625;47.072;22.192;2023-02-13T11:45:38;101812.66;;;6.10;65.34
68634;BME280;55625;47.072;22.192;2023-02-13T11:47:41;101812.53;;;6.22;65.40
68634;BME280;55625;47.072;22.192;2023-02-13T11:50:32;101802.47;;;6.44;65.88
68634;BME280;55625;47.072;22.192;2023-02-13T11:53:21;101802.03;;;6.65;65.56
68634;BME280;55625;47.072;22.192;2023-02-13T11:58:33;101781.16;;;6.92;63.80
68634;BME280;55625;47.072;22.192;2023-02-13T12:03:50;101778.00;;;6.97;63.16
68634;BME280;55625;47.072;22.192;2023-02-13T12:06:21;101773.13;;;6.94;64.54
68634;BME280;55625;47.072;22.192;2023-02-13T12:08:48;101784.50;;;7.01;64.65
68634;BME280;55625;47.072;22.192;2023-02-13T12:11:50;101775.25;;;7.27;63.38
68634;BME280;55625;47.072;22.192;2023-02-13T12:14:24;101779.00;;;7.35;63.83
68634;BME280;55625;47.072;22.192;2023-02-13T12:17:07;101776.41;;;7.53;62.72
68634;BME280;55625;47.072;22.192;2023-02-13T12:19:47;101774.63;;;7.67;61.83
68634;BME280;55625;47.072;22.192;2023-02-13T12:28:06;101770.91;;;7.63;61.59
68634;BME280;55625;47.072;22.192;2023-02-13T12:34:13;101766.50;;;7.36;61.19
68634;BME280;55625;47.072;22.192;2023-02-13T12:45:41;101757.34;;;7.16;62.31
68634;BME280;55625;47.072;22.192;2023-02-13T12:48:51;101762.59;;;7.18;62.01
68634;BME280;55625;47.072;22.192;2023-02-13T12:52:11;101757.19;;;7.05;62.89
68634;BME280;55625;47.072;22.192;2023-02-13T13:04:54;101753.88;;;7.30;60.82
68634;BME280;55625;47.072;22.192;2023-02-13T13:10:14;101748.78;;;6.86;62.12
68634;BME280;55625;47.072;22.192;2023-02-13T13:19:19;101745.16;;;6.85;64.44
68634;BME280;55625;47.072;22.192;2023-02-13T13:21:59;101736.53;;;6.75;63.64
68634;BME280;55625;47.072;22.192;2023-02-13T13:27:35;101748.53;;;6.45;63.11
68634;BME280;55625;47.072;22.192;2023-02-13T13:30:26;101752.06;;;6.42;65.58
68634;BME280;55625;47.072;22.192;2023-02-13T13:33:26;101751.13;;;6.35;66.41
68634;BME280;55625;47.072;22.192;2023-02-13T13:39:45;101753.09;;;6.53;64.68
68634;BME280;55625;47.072;22.192;2023-02-13T13:50:11;101740.34;;;6.17;65.54
68634;BME280;55625;47.072;22.192;2023-02-13T13:53:09;101741.75;;;6.08;66.22
68634;BME280;55625;47.072;22.192;2023-02-13T13:56:03;101741.81;;;6.11;66.96
68634;BME280;55625;47.072;22.192;2023-02-13T13:58:42;101736.13;;;6.08;66.61
68634;BME280;55625;47.072;22.192;2023-02-13T14:01:28;101731.78;;;5.91;67.34
68634;BME280;55625;47.072;22.192;2023-02-13T14:04:00;101739.72;;;5.85;67.75
68634;BME280;55625;47.072;22.192;2023-02-13T14:11:54;101737.09;;;5.77;67.24
68634;BME280;55625;47.072;22.192;2023-02-13T14:16:58;101731.31;;;5.50;68.73
68634;BME280;55625;47.072;22.192;2023-02-13T14:19:33;101722.94;;;5.35;69.22
68634;BME280;55625;47.072;22.192;2023-02-13T14:25:02;101728.28;;;5.20;69.42
68634;BME280;55625;47.072;22.192;2023-02-13T14:27:38;101718.00;;;5.12;69.82
68634;BME280;55625;47.072;22.192;2023-02-13T14:30:30;101720.28;;;5.22;69.67
68634;BME280;55625;47.072;22.192;2023-02-13T14:33:03;101719.28;;;5.15;70.33
68634;BME280;55625;47.072;22.192;2023-02-13T14:35:34;101719.56;;;5.10;70.03
68634;BME280;55625;47.072;22.192;2023-02-13T14:38:05;101731.41;;;4.99;70.21
68634;BME280;55625;47.072;22.192;2023-02-13T14:40:49;101734.16;;;4.80;71.25
68634;BME280;55625;47.072;22.192;2023-02-13T14:43:50;101735.69;;;4.78;71.56
68634;BME280;55625;47.072;22.192;2023-02-13T14:46:36;101727.69;;;4.80;71.31
68634;BME280;55625;47.072;22.192;2023-02-13T14:49:26;101723.81;;;4.68;71.42
68634;BME280;55625;47.072;22.192;2023-02-13T14:52:13;101713.13;;;4.58;71.54
68634;BME280;55625;47.072;22.192;2023-02-13T14:54:48;101707.03;;;4.56;71.71
68634;BME280;55625;47.072;22.192;2023-02-13T14:57:20;101711.03;;;4.55;71.62
68634;BME280;55625;47.072;22.192;2023-02-13T15:00:03;101712.50;;;4.49;71.92
68634;BME280;55625;47.072;22.192;2023-02-13T15:02:40;101704.34;;;4.44;72.17
68634;BME280;55625;47.072;22.192;2023-02-13T15:05:17;101713.78;;;4.36;72.36
68634;BME280;55625;47.072;22.192;2023-02-13T15:08:10;101705.03;;;4.25;72.72
68634;BME280;55625;47.072;22.192;2023-02-13T15:10:47;101708.41;;;4.15;73.55
68634;BME280;55625;47.072;22.192;2023-02-13T15:13:30;101718.00;;;4.14;73.64
68634;BME280;55625;47.072;22.192;2023-02-13T15:16:10;101712.94;;;4.04;74.04
68634;BME280;55625;47.072;22.192;2023-02-13T15:18:49;101716.97;;;3.91;74.23
68634;BME280;55625;47.072;22.192;2023-02-13T15:21:22;101715.06;;;3.79;74.74
68634;BME280;55625;47.072;22.192;2023-02-13T15:23:57;101708.78;;;3.70;74.77
68634;BME280;55625;47.072;22.192;2023-02-13T15:26:25;101705.41;;;3.64;75.06
68634;BME280;55625;47.072;22.192;2023-02-13T15:29:14;101710.00;;;3.57;75.29
68634;BME280;55625;47.072;22.192;2023-02-13T15:31:40;101713.88;;;3.52;75.53
68634;BME280;55625;47.072;22.192;2023-02-13T15:34:31;101706.44;;;3.44;76.24
68634;BME280;55625;47.072;22.192;2023-02-13T15:36:59;101706.34;;;3.40;75.87
68634;BME280;55625;47.072;22.192;2023-02-13T15:39:31;101702.13;;;3.34;75.94
68634;BME280;55625;47.072;22.192;2023-02-13T15:41:59;101706.72;;;3.27;76.28